sensor_id;sensor_type;location;lat;lon;timestamp;P1;durP1;ratioP1;P2;durP2;ratioP2
78298;SDS011;67556;55.656;12.590;2023-09-18T00:01:10;5.22;;;4.65;;
78298;SDS011;67556;55.656;12.590;2023-09-18T00:03:37;6.28;;;4.65;;
78298;SDS011;67556;55.656;12.590;2023-09-18T00:06:03;5.65;;;4.40;;
78298;SDS011;67556;55.656;12.590;2023-09-18T00:08:31;7.35;;;4.78;;
78298;SDS011;67556;55.656;12.590;2023-09-18T00:10:59;7.10;;;4.65;;
78298;SDS011;67556;55.656;12.590;2023-09-18T00:13:26;8.00;;;5.20;;
78298;SDS011;67556;55.656;12.590;2023-09-18T00:15:54;6.78;;;4.85;;
78298;SDS011;67556;55.656;12.590;2023-09-18T00:18:21;6.90;;;4.70;;
78298;SDS011;67556;55.656;12.590;2023-09-18T00:20:48;6.70;;;5.13;;
78298;SDS011;67556;55.656;12.590;2023-09-18T00:23:14;6.35;;;4.60;;
78298;SDS011;67556;55.656;12.590;2023-09-18T00:25:41;6.30;;;4.22;;
78298;SDS011;67556;55.656;12.590;2023-09-18T00:28:09;7.80;;;4.70;;
78298;SDS011;67556;55.656;12.590;2023-09-18T00:30:37;5.80;;;3.95;;
78298;SDS011;67556;55.656;12.590;2023-09-18T00:33:03;6.25;;;5.00;;
78298;SDS011;67556;55.656;12.590;2023-09-18T00:35:30;6.10;;;4.53;;
78298;SDS011;67556;55.656;12.590;2023-09-18T00:37:56;5.88;;;4.70;;
78298;SDS011;67556;55.656;12.590;2023-09-18T00:40:23;5.95;;;4.38;;
78298;SDS011;67556;55.656;12.590;2023-09-18T00:42:49;6.45;;;4.60;;
78298;SDS011;67556;55.656;12.590;2023-09-18T00:45:18;7.30;;;4.43;;
78298;SDS011;67556;55.656;12.590;2023-09-18T00:47:46;5.32;;;3.72;;
78298;SDS011;67556;55.656;12.590;2023-09-18T00:50:12;7.32;;;4.10;;
78298;SDS011;67556;55.656;12.590;2023-09-18T00:52:40;5.70;;;4.28;;
78298;SDS011;67556;55.656;12.590;2023-09-18T00:55:07;6.85;;;4.43;;
78298;SDS011;67556;55.656;12.590;2023-09-18T00:57:35;6.53;;;4.60;;
78298;SDS011;67556;55.656;12.590;2023-09-18T01:00:01;6.20;;;4.78;;
78298;SDS011;67556;55.656;12.590;2023-09-18T01:02:30;6.97;;;4.32;;
78298;SDS011;67556;55.656;12.590;2023-09-18T01:04:57;5.22;;;4.50;;
78298;SDS011;67556;55.656;12.590;2023-09-18T01:07:24;7.25;;;4.55;;
78298;SDS011;67556;55.656;12.590;2023-09-18T01:09:50;6.75;;;4.63;;
78298;SDS011;67556;55.656;12.590;2023-09-18T01:12:17;7.53;;;4.60;;
78298;SDS011;67556;55.656;12.590;2023-09-18T01:14:51;8.05;;;5.05;;
78298;SDS011;67556;55.656;12.590;2023-09-18T01:17:23;5.78;;;4.00;;
78298;SDS011;67556;55.656;12.590;2023-09-18T01:19:51;7.50;;;4.63;;
78298;SDS011;67556;55.656;12.590;2023-09-18T01:22:18;6.35;;;4.60;;
78298;SDS011;67556;55.656;12.590;2023-09-18T01:24:46;6.68;;;4.88;;
78298;SDS011;67556;55.656;12.590;2023-09-18T01:27:14;8.15;;;5.18;;
78298;SDS011;67556;55.656;12.590;2023-09-18T01:29:42;5.85;;;4.30;;
78298;SDS011;67556;55.656;12.590;2023-09-18T01:32:11;5.82;;;4.82;;
78298;SDS011;67556;55.656;12.590;2023-09-18T01:34:39;6.30;;;4.72;;
78298;SDS011;67556;55.656;12.590;2023-09-18T01:37:08;7.53;;;4.63;;
78298;SDS011;67556;55.656;12.590;2023-09-18T01:39:35;7.85;;;4.90;;
78298;SDS011;67556;55.656;12.590;2023-09-18T01:42:03;6.80;;;4.93;;
78298;SDS011;67556;55.656;12.590;2023-09-18T01:44:30;7.03;;;5.20;;
78298;SDS011;67556;55.656;12.590;2023-09-18T01:46:58;9.50;;;4.93;;
78298;SDS011;67556;55.656;12.590;2023-09-18T01:49:27;8.18;;;4.85;;
78298;SDS011;67556;55.656;12.590;2023-09-18T01:51:55;6.68;;;5.32;;
78298;SDS011;67556;55.656;12.590;2023-09-18T01:54:21;7.07;;;4.60;;
78298;SDS011;67556;55.656;12.590;2023-09-18T01:56:48;9.68;;;6.13;;
78298;SDS011;67556;55.656;12.590;2023-09-18T01:59:16;7.45;;;5.32;;
78298;SDS011;67556;55.656;12.590;2023-09-18T02:01:43;8.63;;;5.20;;
78298;SDS011;67556;55.656;12.590;2023-09-18T02:04:09;8.38;;;5.25;;
78298;SDS011;67556;55.656;12.590;2023-09-18T02:06:36;7.72;;;5.28;;
78298;SDS011;67556;55.656;12.590;2023-09-18T02:09:02;7.72;;;5.68;;
78298;SDS011;67556;55.656;12.590;2023-09-18T02:11:29;6.78;;;5.40;;
78298;SDS011;67556;55.656;12.590;2023-09-18T02:13:55;8.35;;;5.60;;
78298;SDS011;67556;55.656;12.590;2023-09-18T02:16:23;8.52;;;5.60;;
78298;SDS011;67556;55.656;12.590;2023-09-18T02:18:53;8.68;;;5.43;;
78298;SDS011;67556;55.656;12.590;2023-09-18T02:21:20;6.22;;;4.75;;
78298;SDS011;67556;55.656;12.590;2023-09-18T02:23:48;8.10;;;5.53;;
78298;SDS011;67556;55.656;12.590;2023-09-18T02:26:14;6.45;;;5.55;;
78298;SDS011;67556;55.656;12.590;2023-09-18T02:28:41;7.75;;;5.65;;
78298;SDS011;67556;55.656;12.590;2023-09-18T02:31:07;10.23;;;6.10;;
78298;SDS011;67556;55.656;12.590;2023-09-18T02:33:35;8.05;;;5.80;;
78298;SDS011;67556;55.656;12.590;2023-09-18T02:36:02;8.10;;;5.45;;
78298;SDS011;67556;55.656;12.590;2023-09-18T02:38:28;7.28;;;5.78;;
78298;SDS011;67556;55.656;12.590;2023-09-18T02:40:55;7.10;;;5.25;;
78298;SDS011;67556;55.656;12.590;2023-09-18T02:43:22;8.15;;;5.90;;
78298;SDS011;67556;55.656;12.590;2023-09-18T02:45:48;6.38;;;5.65;;
78298;SDS011;67556;55.656;12.590;2023-09-18T02:48:15;9.40;;;5.90;;
78298;SDS011;67556;55.656;12.590;2023-09-18T02:50:43;6.72;;;6.03;;
78298;SDS011;67556;55.656;12.590;2023-09-18T02:53:12;9.15;;;6.07;;
78298;SDS011;67556;55.656;12.590;2023-09-18T02:55:42;6.72;;;5.70;;
78298;SDS011;67556;55.656;12.590;2023-09-18T02:58:08;8.27;;;5.82;;
78298;SDS011;67556;55.656;12.590;2023-09-18T03:03:10;10.30;;;6.70;;
78298;SDS011;67556;55.656;12.590;2023-09-18T03:05:37;8.25;;;6.05;;
78298;SDS011;67556;55.656;12.590;2023-09-18T03:08:05;8.27;;;6.25;;
78298;SDS011;67556;55.656;12.590;2023-09-18T03:10:32;7.13;;;5.55;;
78298;SDS011;67556;55.656;12.590;2023-09-18T03:12:59;7.65;;;6.32;;
78298;SDS011;67556;55.656;12.590;2023-09-18T03:15:26;8.18;;;5.97;;
78298;SDS011;67556;55.656;12.590;2023-09-18T03:17:54;10.43;;;6.45;;
78298;SDS011;67556;55.656;12.590;2023-09-18T03:20:22;8.27;;;5.97;;
78298;SDS011;67556;55.656;12.590;2023-09-18T03:22:48;8.65;;;6.35;;
78298;SDS011;67556;55.656;12.590;2023-09-18T03:25:16;7.32;;;6.07;;
78298;SDS011;67556;55.656;12.590;2023-09-18T03:27:42;7.90;;;6.38;;
78298;SDS011;67556;55.656;12.590;2023-09-18T03:30:09;7.97;;;6.18;;
78298;SDS011;67556;55.656;12.590;2023-09-18T03:32:37;8.77;;;6.00;;
78298;SDS011;67556;55.656;12.590;2023-09-18T03:35:04;9.60;;;6.78;;
78298;SDS011;67556;55.656;12.590;2023-09-18T03:37:31;7.95;;;6.70;;
78298;SDS011;67556;55.656;12.590;2023-09-18T03:39:57;10.35;;;7.28;;
78298;SDS011;67556;55.656;12.590;2023-09-18T03:42:25;7.93;;;6.10;;
78298;SDS011;67556;55.656;12.590;2023-09-18T03:44:51;11.50;;;7.10;;
78298;SDS011;67556;55.656;12.590;2023-09-18T03:47:18;7.80;;;6.35;;
78298;SDS011;67556;55.656;12.590;2023-09-18T03:49:44;10.35;;;7.00;;
78298;SDS011;67556;55.656;12.590;2023-09-18T03:52:11;10.80;;;7.70;;
78298;SDS011;67556;55.656;12.590;2023-09-18T03:54:37;9.07;;;6.70;;
78298;SDS011;67556;55.656;12.590;2023-09-18T03:57:04;8.77;;;7.28;;
78298;SDS011;67556;55.656;12.590;2023-09-18T03:59:32;13.18;;;7.45;;
78298;SDS011;67556;55.656;12.590;2023-09-18T04:01:58;8.15;;;7.35;;
78298;SDS011;67556;55.656;12.590;2023-09-18T04:04:25;11.07;;;8.00;;
78298;SDS011;67556;55.656;12.590;2023-09-18T04:06:53;10.70;;;7.82;;
78298;SDS011;67556;55.656;12.590;2023-09-18T04:09:19;11.13;;;7.80;;
78298;SDS011;67556;55.656;12.590;2023-09-18T04:11:46;11.25;;;8.15;;
78298;SDS011;67556;55.656;12.590;2023-09-18T04:14:12;8.68;;;7.78;;
78298;SDS011;67556;55.656;12.590;2023-09-18T04:16:40;8.82;;;7.85;;
78298;SDS011;67556;55.656;12.590;2023-09-18T04:19:08;11.90;;;7.57;;
78298;SDS011;67556;55.656;12.590;2023-09-18T04:21:35;10.88;;;8.13;;
78298;SDS011;67556;55.656;12.590;2023-09-18T04:24:01;12.27;;;8.60;;
78298;SDS011;67556;55.656;12.590;2023-09-18T04:26:28;9.52;;;8.20;;
78298;SDS011;67556;55.656;12.590;2023-09-18T04:28:55;12.88;;;8.60;;
78298;SDS011;67556;55.656;12.590;2023-09-18T04:31:22;11.55;;;7.72;;
78298;SDS011;67556;55.656;12.590;2023-09-18T04:33:50;12.68;;;8.57;;
78298;SDS011;67556;55.656;12.590;2023-09-18T04:36:16;10.35;;;8.73;;
78298;SDS011;67556;55.656;12.590;2023-09-18T04:38:42;10.35;;;8.40;;
78298;SDS011;67556;55.656;12.590;2023-09-18T04:41:09;11.38;;;8.80;;
78298;SDS011;67556;55.656;12.590;2023-09-18T04:43:36;11.68;;;8.88;;
78298;SDS011;67556;55.656;12.590;2023-09-18T04:46:03;10.65;;;8.13;;
78298;SDS011;67556;55.656;12.590;2023-09-18T04:48:30;11.80;;;8.48;;
78298;SDS011;67556;55.656;12.590;2023-09-18T04:50:58;12.05;;;8.70;;
78298;SDS011;67556;55.656;12.590;2023-09-18T04:53:25;12.43;;;9.23;;
78298;SDS011;67556;55.656;12.590;2023-09-18T04:55:51;10.13;;;8.77;;
78298;SDS011;67556;55.656;12.590;2023-09-18T04:58:18;11.40;;;8.75;;
78298;SDS011;67556;55.656;12.590;2023-09-18T05:00:44;13.73;;;9.63;;
78298;SDS011;67556;55.656;12.590;2023-09-18T05:03:11;10.70;;;9.52;;
78298;SDS011;67556;55.656;12.590;2023-09-18T05:05:38;12.98;;;9.40;;
78298;SDS011;67556;55.656;12.590;2023-09-18T05:08:06;13.82;;;9.85;;
78298;SDS011;67556;55.656;12.590;2023-09-18T05:10:33;11.88;;;9.20;;
78298;SDS011;67556;55.656;12.590;2023-09-18T05:12:59;13.18;;;9.57;;
78298;SDS011;67556;55.656;12.590;2023-09-18T05:15:26;13.18;;;9.57;;
78298;SDS011;67556;55.656;12.590;2023-09-18T05:17:54;12.43;;;9.23;;
78298;SDS011;67556;55.656;12.590;2023-09-18T05:20:23;12.00;;;10.18;;
78298;SDS011;67556;55.656;12.590;2023-09-18T05:22:50;10.57;;;8.82;;
78298;SDS011;67556;55.656;12.590;2023-09-18T05:25:19;12.18;;;9.85;;
78298;SDS011;67556;55.656;12.590;2023-09-18T05:27:46;13.40;;;9.57;;
78298;SDS011;67556;55.656;12.590;2023-09-18T05:30:21;10.90;;;9.30;;
78298;SDS011;67556;55.656;12.590;2023-09-18T05:32:53;10.80;;;9.13;;
78298;SDS011;67556;55.656;12.590;2023-09-18T05:35:19;24.27;;;16.77;;
78298;SDS011;67556;55.656;12.590;2023-09-18T05:37:46;13.75;;;9.52;;
78298;SDS011;67556;55.656;12.590;2023-09-18T05:40:13;14.27;;;10.25;;
78298;SDS011;67556;55.656;12.590;2023-09-18T05:42:43;12.25;;;9.40;;
78298;SDS011;67556;55.656;12.590;2023-09-18T05:45:11;12.10;;;8.68;;
78298;SDS011;67556;55.656;12.590;2023-09-18T05:47:38;12.45;;;9.75;;
78298;SDS011;67556;55.656;12.590;2023-09-18T05:50:11;16.58;;;12.15;;
78298;SDS011;67556;55.656;12.590;2023-09-18T05:52:43;12.02;;;10.18;;
78298;SDS011;67556;55.656;12.590;2023-09-18T05:55:09;12.95;;;10.35;;
78298;SDS011;67556;55.656;12.590;2023-09-18T05:57:35;15.48;;;10.57;;
78298;SDS011;67556;55.656;12.590;2023-09-18T06:00:05;13.02;;;9.50;;
78298;SDS011;67556;55.656;12.590;2023-09-18T06:02:31;11.73;;;9.60;;
78298;SDS011;67556;55.656;12.590;2023-09-18T06:04:58;11.32;;;9.55;;
78298;SDS011;67556;55.656;12.590;2023-09-18T06:07:27;12.05;;;9.65;;
78298;SDS011;67556;55.656;12.590;2023-09-18T06:09:53;12.15;;;9.73;;
78298;SDS011;67556;55.656;12.590;2023-09-18T06:12:20;12.27;;;9.68;;
78298;SDS011;67556;55.656;12.590;2023-09-18T06:14:47;12.50;;;10.20;;
78298;SDS011;67556;55.656;12.590;2023-09-18T06:17:17;13.10;;;10.68;;
78298;SDS011;67556;55.656;12.590;2023-09-18T06:19:43;14.07;;;10.23;;
78298;SDS011;67556;55.656;12.590;2023-09-18T06:22:10;11.88;;;10.23;;
78298;SDS011;67556;55.656;12.590;2023-09-18T06:24:37;10.23;;;9.13;;
78298;SDS011;67556;55.656;12.590;2023-09-18T06:27:03;11.75;;;10.10;;
78298;SDS011;67556;55.656;12.590;2023-09-18T06:29:30;13.75;;;9.93;;
78298;SDS011;67556;55.656;12.590;2023-09-18T06:31:57;15.65;;;9.45;;
78298;SDS011;67556;55.656;12.590;2023-09-18T06:34:26;13.57;;;10.20;;
78298;SDS011;67556;55.656;12.590;2023-09-18T06:36:53;12.57;;;10.07;;
78298;SDS011;67556;55.656;12.590;2023-09-18T06:39:19;13.30;;;9.85;;
78298;SDS011;67556;55.656;12.590;2023-09-18T06:41:47;10.77;;;9.52;;
78298;SDS011;67556;55.656;12.590;2023-09-18T06:44:13;12.23;;;9.40;;
78298;SDS011;67556;55.656;12.590;2023-09-18T06:46:40;12.45;;;10.60;;
78298;SDS011;67556;55.656;12.590;2023-09-18T06:49:07;11.80;;;10.10;;
78298;SDS011;67556;55.656;12.590;2023-09-18T06:51:34;11.93;;;10.60;;
78298;SDS011;67556;55.656;12.590;2023-09-18T06:54:01;14.15;;;10.02;;
78298;SDS011;67556;55.656;12.590;2023-09-18T06:56:27;13.05;;;9.48;;
78298;SDS011;67556;55.656;12.590;2023-09-18T06:58:54;12.25;;;10.75;;
78298;SDS011;67556;55.656;12.590;2023-09-18T07:01:20;13.75;;;9.65;;
78298;SDS011;67556;55.656;12.590;2023-09-18T07:03:47;13.25;;;9.70;;
78298;SDS011;67556;55.656;12.590;2023-09-18T07:06:15;13.50;;;10.48;;
78298;SDS011;67556;55.656;12.590;2023-09-18T07:08:47;14.38;;;10.88;;
78298;SDS011;67556;55.656;12.590;2023-09-18T07:11:14;14.20;;;10.05;;
78298;SDS011;67556;55.656;12.590;2023-09-18T07:13:41;13.07;;;9.65;;
78298;SDS011;67556;55.656;12.590;2023-09-18T07:16:08;13.68;;;10.57;;
78298;SDS011;67556;55.656;12.590;2023-09-18T07:18:35;12.88;;;10.65;;
78298;SDS011;67556;55.656;12.590;2023-09-18T07:21:01;12.18;;;10.88;;
78298;SDS011;67556;55.656;12.590;2023-09-18T07:23:28;13.55;;;10.10;;
78298;SDS011;67556;55.656;12.590;2023-09-18T07:25:56;11.27;;;10.13;;
78298;SDS011;67556;55.656;12.590;2023-09-18T07:28:23;14.45;;;11.43;;
78298;SDS011;67556;55.656;12.590;2023-09-18T07:30:49;12.65;;;10.63;;
78298;SDS011;67556;55.656;12.590;2023-09-18T07:33:18;14.55;;;11.23;;
78298;SDS011;67556;55.656;12.590;2023-09-18T07:35:46;14.20;;;10.63;;
78298;SDS011;67556;55.656;12.590;2023-09-18T07:38:13;13.65;;;10.45;;
78298;SDS011;67556;55.656;12.590;2023-09-18T07:40:40;14.55;;;11.52;;
78298;SDS011;67556;55.656;12.590;2023-09-18T07:43:08;12.27;;;10.52;;
78298;SDS011;67556;55.656;12.590;2023-09-18T07:45:34;11.85;;;9.98;;
78298;SDS011;67556;55.656;12.590;2023-09-18T07:48:00;14.48;;;10.43;;
78298;SDS011;67556;55.656;12.590;2023-09-18T07:50:27;11.10;;;9.43;;
78298;SDS011;67556;55.656;12.590;2023-09-18T07:52:53;11.52;;;10.05;;
78298;SDS011;67556;55.656;12.590;2023-09-18T07:55:20;13.35;;;9.90;;
78298;SDS011;67556;55.656;12.590;2023-09-18T07:57:46;13.82;;;11.38;;
78298;SDS011;67556;55.656;12.590;2023-09-18T08:00:16;13.38;;;11.40;;
78298;SDS011;67556;55.656;12.590;2023-09-18T08:02:42;21.67;;;16.08;;
78298;SDS011;67556;55.656;12.590;2023-09-18T08:05:09;13.40;;;10.60;;
78298;SDS011;67556;55.656;12.590;2023-09-18T08:07:35;28.80;;;20.25;;
78298;SDS011;67556;55.656;12.590;2023-09-18T08:10:02;14.82;;;11.02;;
78298;SDS011;67556;55.656;12.590;2023-09-18T08:12:31;12.05;;;10.38;;
78298;SDS011;67556;55.656;12.590;2023-09-18T08:14:57;13.13;;;9.50;;
78298;SDS011;67556;55.656;12.590;2023-09-18T08:17:26;16.20;;;9.93;;
78298;SDS011;67556;55.656;12.590;2023-09-18T08:19:52;12.55;;;9.75;;
78298;SDS011;67556;55.656;12.590;2023-09-18T08:22:19;11.07;;;9.98;;
78298;SDS011;67556;55.656;12.590;2023-09-18T08:24:46;14.95;;;9.82;;
78298;SDS011;67556;55.656;12.590;2023-09-18T08:27:13;11.90;;;9.48;;
78298;SDS011;67556;55.656;12.590;2023-09-18T08:29:41;12.57;;;9.63;;
78298;SDS011;67556;55.656;12.590;2023-09-18T08:32:08;11.32;;;9.00;;
78298;SDS011;67556;55.656;12.590;2023-09-18T08:34:36;10.05;;;9.00;;
78298;SDS011;67556;55.656;12.590;2023-09-18T08:37:02;13.88;;;9.27;;
78298;SDS011;67556;55.656;12.590;2023-09-18T08:39:29;13.85;;;9.13;;
78298;SDS011;67556;55.656;12.590;2023-09-18T08:41:58;10.48;;;8.90;;
78298;SDS011;67556;55.656;12.590;2023-09-18T08:44:26;10.30;;;8.75;;
78298;SDS011;67556;55.656;12.590;2023-09-18T08:46:53;10.10;;;8.23;;
78298;SDS011;67556;55.656;12.590;2023-09-18T08:49:19;11.85;;;8.40;;
78298;SDS011;67556;55.656;12.590;2023-09-18T08:51:48;9.75;;;8.68;;
78298;SDS011;67556;55.656;12.590;2023-09-18T08:54:15;10.35;;;8.77;;
78298;SDS011;67556;55.656;12.590;2023-09-18T08:56:41;9.63;;;8.60;;
78298;SDS011;67556;55.656;12.590;2023-09-18T08:59:08;10.65;;;8.70;;
78298;SDS011;67556;55.656;12.590;2023-09-18T09:01:34;9.60;;;8.60;;
78298;SDS011;67556;55.656;12.590;2023-09-18T09:04:00;9.82;;;8.65;;
78298;SDS011;67556;55.656;12.590;2023-09-18T09:06:27;9.32;;;8.25;;
78298;SDS011;67556;55.656;12.590;2023-09-18T09:08:57;11.10;;;8.73;;
78298;SDS011;67556;55.656;12.590;2023-09-18T09:11:24;10.18;;;8.02;;
78298;SDS011;67556;55.656;12.590;2023-09-18T09:13:54;9.88;;;8.88;;
78298;SDS011;67556;55.656;12.590;2023-09-18T09:16:34;10.60;;;8.20;;
78298;SDS011;67556;55.656;12.590;2023-09-18T09:19:00;10.25;;;7.85;;
78298;SDS011;67556;55.656;12.590;2023-09-18T09:21:37;10.07;;;8.70;;
78298;SDS011;67556;55.656;12.590;2023-09-18T09:24:05;11.77;;;8.45;;
78298;SDS011;67556;55.656;12.590;2023-09-18T09:26:32;9.10;;;8.13;;
78298;SDS011;67556;55.656;12.590;2023-09-18T09:29:14;10.55;;;8.07;;
78298;SDS011;67556;55.656;12.590;2023-09-18T09:31:40;12.15;;;9.52;;
78298;SDS011;67556;55.656;12.590;2023-09-18T09:34:06;10.10;;;8.18;;
78298;SDS011;67556;55.656;12.590;2023-09-18T09:36:34;12.32;;;8.43;;
78298;SDS011;67556;55.656;12.590;2023-09-18T09:39:00;9.65;;;8.65;;
78298;SDS011;67556;55.656;12.590;2023-09-18T09:41:32;10.35;;;8.68;;
78298;SDS011;67556;55.656;12.590;2023-09-18T09:43:58;13.07;;;8.27;;
78298;SDS011;67556;55.656;12.590;2023-09-18T09:46:25;11.77;;;8.55;;
78298;SDS011;67556;55.656;12.590;2023-09-18T09:48:59;11.10;;;9.00;;
78298;SDS011;67556;55.656;12.590;2023-09-18T09:51:26;9.60;;;8.18;;
78298;SDS011;67556;55.656;12.590;2023-09-18T09:53:53;10.60;;;8.75;;
78298;SDS011;67556;55.656;12.590;2023-09-18T09:56:19;10.38;;;8.32;;
78298;SDS011;67556;55.656;12.590;2023-09-18T09:59:00;9.52;;;8.40;;
78298;SDS011;67556;55.656;12.590;2023-09-18T10:01:29;11.98;;;8.80;;
78298;SDS011;67556;55.656;12.590;2023-09-18T10:03:56;9.95;;;8.45;;
78298;SDS011;67556;55.656;12.590;2023-09-18T10:06:24;11.02;;;8.32;;
78298;SDS011;67556;55.656;12.590;2023-09-18T10:08:54;10.68;;;8.32;;
78298;SDS011;67556;55.656;12.590;2023-09-18T10:11:21;11.05;;;8.52;;
78298;SDS011;67556;55.656;12.590;2023-09-18T10:13:51;13.10;;;8.77;;
78298;SDS011;67556;55.656;12.590;2023-09-18T10:16:22;8.60;;;7.50;;
78298;SDS011;67556;55.656;12.590;2023-09-18T10:18:54;10.35;;;8.18;;
78298;SDS011;67556;55.656;12.590;2023-09-18T10:21:26;10.00;;;8.30;;
78298;SDS011;67556;55.656;12.590;2023-09-18T10:23:59;11.48;;;8.25;;
78298;SDS011;67556;55.656;12.590;2023-09-18T10:26:26;11.00;;;8.30;;
78298;SDS011;67556;55.656;12.590;2023-09-18T10:28:55;10.85;;;8.60;;
78298;SDS011;67556;55.656;12.590;2023-09-18T10:31:25;9.60;;;8.25;;
78298;SDS011;67556;55.656;12.590;2023-09-18T10:33:52;9.27;;;8.23;;
78298;SDS011;67556;55.656;12.590;2023-09-18T10:36:19;13.25;;;7.70;;
78298;SDS011;67556;55.656;12.590;2023-09-18T10:38:47;11.13;;;8.02;;
78298;SDS011;67556;55.656;12.590;2023-09-18T10:41:17;10.88;;;7.93;;
78298;SDS011;67556;55.656;12.590;2023-09-18T10:43:45;9.48;;;7.75;;
78298;SDS011;67556;55.656;12.590;2023-09-18T10:46:12;9.02;;;8.13;;
78298;SDS011;67556;55.656;12.590;2023-09-18T10:48:40;11.25;;;7.70;;
78298;SDS011;67556;55.656;12.590;2023-09-18T10:51:08;8.93;;;6.85;;
78298;SDS011;67556;55.656;12.590;2023-09-18T10:53:35;9.15;;;7.35;;
78298;SDS011;67556;55.656;12.590;2023-09-18T10:56:01;9.45;;;7.85;;
78298;SDS011;67556;55.656;12.590;2023-09-18T10:58:29;9.45;;;7.60;;
78298;SDS011;67556;55.656;12.590;2023-09-18T11:03:26;8.65;;;7.20;;
78298;SDS011;67556;55.656;12.590;2023-09-18T11:06:04;10.52;;;7.63;;
78298;SDS011;67556;55.656;12.590;2023-09-18T11:08:32;8.27;;;6.63;;
78298;SDS011;67556;55.656;12.590;2023-09-18T11:10:59;9.25;;;6.97;;
78298;SDS011;67556;55.656;12.590;2023-09-18T11:13:30;9.57;;;6.88;;
78298;SDS011;67556;55.656;12.590;2023-09-18T11:16:13;9.63;;;7.00;;
78298;SDS011;67556;55.656;12.590;2023-09-18T11:21:08;9.13;;;7.65;;
78298;SDS011;67556;55.656;12.590;2023-09-18T11:23:35;11.93;;;6.95;;
78298;SDS011;67556;55.656;12.590;2023-09-18T11:26:08;7.90;;;7.10;;
78298;SDS011;67556;55.656;12.590;2023-09-18T11:28:34;8.98;;;7.13;;
78298;SDS011;67556;55.656;12.590;2023-09-18T11:31:04;8.55;;;7.65;;
78298;SDS011;67556;55.656;12.590;2023-09-18T11:33:32;9.45;;;7.70;;
78298;SDS011;67556;55.656;12.590;2023-09-18T11:36:01;10.75;;;7.65;;
78298;SDS011;67556;55.656;12.590;2023-09-18T11:38:30;10.70;;;7.38;;
78298;SDS011;67556;55.656;12.590;2023-09-18T11:40:58;8.27;;;7.18;;
78298;SDS011;67556;55.656;12.590;2023-09-18T11:43:27;8.32;;;7.43;;
78298;SDS011;67556;55.656;12.590;2023-09-18T11:45:54;10.25;;;7.53;;
78298;SDS011;67556;55.656;12.590;2023-09-18T11:48:21;8.05;;;6.75;;
78298;SDS011;67556;55.656;12.590;2023-09-18T11:50:51;8.73;;;7.35;;
78298;SDS011;67556;55.656;12.590;2023-09-18T11:53:19;9.00;;;6.97;;
78298;SDS011;67556;55.656;12.590;2023-09-18T11:55:47;9.75;;;7.65;;
78298;SDS011;67556;55.656;12.590;2023-09-18T11:58:14;8.98;;;7.55;;
78298;SDS011;67556;55.656;12.590;2023-09-18T12:00:40;10.57;;;7.97;;
78298;SDS011;67556;55.656;12.590;2023-09-18T12:03:18;11.43;;;7.78;;
78298;SDS011;67556;55.656;12.590;2023-09-18T12:05:53;10.32;;;7.57;;
78298;SDS011;67556;55.656;12.590;2023-09-18T12:08:21;8.98;;;7.95;;
78298;SDS011;67556;55.656;12.590;2023-09-18T12:10:50;8.32;;;7.43;;
78298;SDS011;67556;55.656;12.590;2023-09-18T12:13:16;7.65;;;6.93;;
78298;SDS011;67556;55.656;12.590;2023-09-18T12:15:43;8.63;;;7.60;;
78298;SDS011;67556;55.656;12.590;2023-09-18T12:18:09;8.15;;;7.30;;
78298;SDS011;67556;55.656;12.590;2023-09-18T12:20:37;10.70;;;8.40;;
78298;SDS011;67556;55.656;12.590;2023-09-18T12:23:03;10.38;;;8.18;;
78298;SDS011;67556;55.656;12.590;2023-09-18T12:25:30;8.90;;;7.85;;
78298;SDS011;67556;55.656;12.590;2023-09-18T12:27:57;9.02;;;8.07;;
78298;SDS011;67556;55.656;12.590;2023-09-18T12:30:25;8.63;;;7.78;;
78298;SDS011;67556;55.656;12.590;2023-09-18T12:32:52;9.52;;;7.82;;
78298;SDS011;67556;55.656;12.590;2023-09-18T12:35:18;8.70;;;7.50;;
78298;SDS011;67556;55.656;12.590;2023-09-18T12:37:45;10.38;;;8.30;;
78298;SDS011;67556;55.656;12.590;2023-09-18T12:40:21;8.13;;;7.22;;
78298;SDS011;67556;55.656;12.590;2023-09-18T12:42:48;9.48;;;7.30;;
78298;SDS011;67556;55.656;12.590;2023-09-18T12:45:16;8.15;;;7.25;;
78298;SDS011;67556;55.656;12.590;2023-09-18T12:47:42;8.43;;;7.45;;
78298;SDS011;67556;55.656;12.590;2023-09-18T12:50:12;10.05;;;8.05;;
78298;SDS011;67556;55.656;12.590;2023-09-18T12:52:40;10.18;;;7.68;;
78298;SDS011;67556;55.656;12.590;2023-09-18T12:55:06;10.50;;;8.13;;
78298;SDS011;67556;55.656;12.590;2023-09-18T12:57:33;8.68;;;7.32;;
78298;SDS011;67556;55.656;12.590;2023-09-18T12:59:59;8.77;;;7.90;;
78298;SDS011;67556;55.656;12.590;2023-09-18T13:02:36;8.60;;;7.28;;
78298;SDS011;67556;55.656;12.590;2023-09-18T13:05:03;9.50;;;7.53;;
78298;SDS011;67556;55.656;12.590;2023-09-18T13:07:29;9.80;;;7.68;;
78298;SDS011;67556;55.656;12.590;2023-09-18T13:09:58;9.60;;;7.78;;
78298;SDS011;67556;55.656;12.590;2023-09-18T13:12:24;9.13;;;7.85;;
78298;SDS011;67556;55.656;12.590;2023-09-18T13:14:57;9.60;;;7.50;;
78298;SDS011;67556;55.656;12.590;2023-09-18T13:17:23;9.27;;;8.15;;
78298;SDS011;67556;55.656;12.590;2023-09-18T13:19:51;10.07;;;7.60;;
78298;SDS011;67556;55.656;12.590;2023-09-18T13:22:22;11.25;;;7.72;;
78298;SDS011;67556;55.656;12.590;2023-09-18T13:24:54;8.63;;;7.30;;
78298;SDS011;67556;55.656;12.590;2023-09-18T13:27:22;12.07;;;7.90;;
78298;SDS011;67556;55.656;12.590;2023-09-18T13:29:49;11.80;;;8.05;;
78298;SDS011;67556;55.656;12.590;2023-09-18T13:32:15;11.43;;;7.90;;
78298;SDS011;67556;55.656;12.590;2023-09-18T13:34:42;9.43;;;7.30;;
78298;SDS011;67556;55.656;12.590;2023-09-18T13:37:11;8.88;;;7.97;;
78298;SDS011;67556;55.656;12.590;2023-09-18T13:39:39;9.48;;;8.10;;
78298;SDS011;67556;55.656;12.590;2023-09-18T13:42:05;10.07;;;7.95;;
78298;SDS011;67556;55.656;12.590;2023-09-18T13:44:32;10.40;;;7.82;;
78298;SDS011;67556;55.656;12.590;2023-09-18T13:46:58;12.50;;;8.23;;
78298;SDS011;67556;55.656;12.590;2023-09-18T13:49:25;9.10;;;7.45;;
78298;SDS011;67556;55.656;12.590;2023-09-18T13:51:51;9.13;;;8.15;;
78298;SDS011;67556;55.656;12.590;2023-09-18T13:54:19;8.30;;;7.50;;
78298;SDS011;67556;55.656;12.590;2023-09-18T13:56:45;10.13;;;7.90;;
78298;SDS011;67556;55.656;12.590;2023-09-18T13:59:13;10.27;;;8.55;;
78298;SDS011;67556;55.656;12.590;2023-09-18T14:01:39;9.57;;;7.82;;
78298;SDS011;67556;55.656;12.590;2023-09-18T14:04:05;11.18;;;8.30;;
78298;SDS011;67556;55.656;12.590;2023-09-18T14:06:32;12.25;;;8.20;;
78298;SDS011;67556;55.656;12.590;2023-09-18T14:08:59;11.90;;;8.75;;
78298;SDS011;67556;55.656;12.590;2023-09-18T14:11:26;9.63;;;8.63;;
78298;SDS011;67556;55.656;12.590;2023-09-18T14:13:53;9.00;;;8.07;;
78298;SDS011;67556;55.656;12.590;2023-09-18T14:16:19;10.18;;;8.63;;
78298;SDS011;67556;55.656;12.590;2023-09-18T14:18:45;8.88;;;7.97;;
78298;SDS011;67556;55.656;12.590;2023-09-18T14:21:12;9.23;;;8.32;;
78298;SDS011;67556;55.656;12.590;2023-09-18T14:23:38;10.60;;;8.40;;
78298;SDS011;67556;55.656;12.590;2023-09-18T14:26:04;10.88;;;8.80;;
78298;SDS011;67556;55.656;12.590;2023-09-18T14:28:32;9.25;;;8.07;;
78298;SDS011;67556;55.656;12.590;2023-09-18T14:31:01;10.05;;;9.05;;
78298;SDS011;67556;55.656;12.590;2023-09-18T14:33:28;11.07;;;8.82;;
78298;SDS011;67556;55.656;12.590;2023-09-18T14:35:57;10.52;;;9.35;;